Luck, Wisconsin
Current Conditions -  °F | °C
As of 9:15 PM on Wednesday 22 Oct 2014 (Local Time) from KRZN Reporting Station
Broken Clouds Broken Clouds  
Wind Chill: 55°   Ceiling: 11000
Heat Index: 55°   Visibility: 10mi
Dew Point: 34°   Wind: 7mph
Humidity: 45%   Direction: 190°S
Pressure: 30.07"   Gusts: NA
Location:  45.58°N, 92.48°W
Report Text: KRZN 230215Z AUTO 19006KT 10SM SCT080 SCT085 BKN110 13/01 A3007 RMK AO2 T01280010
Loading
Personal Weather Stations






























Interactive Weather Map New forecast layout! Learn more

10-Day Weather Forecast

Advertisements
Track Severe Weather on mobile